Flight Track Log - Related Links

Times and Time Zones

All times are in EDT time to prevent confusion due to time zone crossing. See the CTL13 flight status page for this flight to view local times or setup timezone preferences in your user account.

Time Position Orientation Groundspeed Altitude Reporting Facility
EDT Latitude Longitude Course Direction KTS MPH feet Rate Location/Type
Tue 11:18:30 PM 41.7833 -87.7167 90° East 132 152 1,600  Level Chicago TRACON
Tue 11:19:30 PM 41.7833 -87.6667 90° East 138 159 2,500 800 Climbing Chicago TRACON
Tue 11:20:30 PM 41.7833 -87.6167 90° East 145 167 3,200 566 Climbing Chicago TRACON
Tue 11:21:16 PM 41.7925 -87.5689 76° East 142 163 3,500 393 Climbing Chicago Center
Tue 11:22:17 PM 41.7939 -87.5111 88° East 148 170 3,900 443 Climbing Chicago Center
Tue 11:23:18 PM 41.7908 -87.4506 94° East 155 178 4,400 443 Climbing Chicago Center
Tue 11:24:19 PM 41.7842 -87.3872 98° East 163 188 4,800 344 Climbing Chicago Center
Tue 11:25:20 PM 41.7747 -87.3203 101° East 178 205 5,100 344 Climbing Chicago Center
Tue 11:26:21 PM 41.7689 -87.2542 97° East 179 206 5,500 344 Climbing Chicago Center
Tue 11:27:22 PM 41.7681 -87.1867 91° East 182 209 5,800 293 Climbing Chicago Center
Tue 11:28:24 PM 41.7697 -87.1175 88° East 187 215 6,100 146 Climbing Chicago Center
Tue 11:29:25 PM 41.7719 -87.0483 88° East 188 216 6,100  Level Chicago Center
Tue 11:30:26 PM 41.7781 -86.9653 84° East 187 215 6,100 49 Level Chicago Center
Tue 11:31:27 PM 41.8111 -86.9117 50° Northeast 195 224 6,200 344 Climbing Chicago Center
Tue 11:32:28 PM 41.8456 -86.8675 44° Northeast 178 205 6,800 443 Climbing Chicago Center
Tue 11:33:29 PM 41.8825 -86.8247 41° Northeast 176 203 7,100 148 Climbing Chicago Center
Tue 11:34:30 PM 41.9192 -86.7769 44° Northeast 183 211 7,100  Level Chicago Center
Tue 11:35:31 PM 41.9586 -86.7253 44° Northeast 195 224 7,100  Level Chicago Center
Tue 11:36:32 PM 41.9953 -86.6697 48° Northeast 197 227 7,100  Level Chicago Center
Tue 11:37:34 PM 42.0344 -86.6169 45° Northeast 200 230 7,100 -49 Level Chicago Center
Tue 11:38:35 PM 42.0736 -86.5636 45° Northeast 201 231 7,000  Descending Chicago Center
Tue 11:39:36 PM 42.1122 -86.5136 44° Northeast 196 226 7,100 49 Climbing Chicago Center
Tue 11:40:37 PM 42.1514 -86.4639 43° Northeast 193 222 7,100  Level Chicago Center
Tue 11:41:38 PM 42.1911 -86.4139 43° Northeast 194 223 7,100  Level Chicago Center
Tue 11:42:39 PM 42.2283 -86.3636 45° Northeast 192 221 7,100  Level Chicago Center
Tue 11:43:40 PM 42.2747 -86.3050 43° Northeast 191 220 7,100 -49 Level Chicago Center
Tue 11:44:41 PM 42.3106 -86.2575 44° Northeast 191 220 7,000  Descending Chicago Center
Tue 11:45:41 PM 42.3497 -86.2100 42° Northeast 192 221 7,100 50 Climbing Chicago Center
Tue 11:46:42 PM 42.3894 -86.1625 41° Northeast 192 221 7,100  Level Chicago Center
Tue 11:47:43 PM 42.4275 -86.1128 44° Northeast 191 220 7,100  Level Chicago Center
Tue 11:48:44 PM 42.4656 -86.0628 44° Northeast 191 220 7,100  Level Chicago Center
Tue 11:49:45 PM 42.4986 -86.0058 52° Northeast 192 221 7,100 -295 Level Chicago Center
Tue 11:50:46 PM 42.5297 -85.9433 56° Northeast 196 226 6,500 -689 Descending Chicago Center
Tue 11:51:47 PM 42.5578 -85.8586 66° East 211 243 5,700 -639 Descending Chicago Center
Tue 11:52:48 PM 42.5717 -85.7878 75° East 199 229 5,200 -590 Descending Chicago Center
Tue 11:53:49 PM 42.5836 -85.7169 77° East 195 224 4,500 -541 Descending Chicago Center
Tue 11:54:50 PM 42.5953 -85.6472 77° East 193 222 4,100 -198 Descending Chicago Center
Tue 11:55:50 PM 42.6092 -85.5864 73° East 179 206 4,100 -50 Level Chicago Center
Tue 11:56:51 PM 42.6375 -85.5381 51° Northeast 166 191 4,000 -295 Descending Chicago Center
Tue 11:57:52 PM 42.6700 -85.5006 40° Northeast 162 186 3,500 -492 Descending Chicago Center
Tue 11:58:53 PM 42.7169 -85.4872 12° North 171 197 3,000 -443 Descending Chicago Center
Tue 11:59:54 PM 42.7525 -85.4903 356° North 149 171 2,600 -248 Descending Chicago Center
Wed 12:00:54 AM 42.7828 -85.4983 349° North 126 145 2,500 -347 Descending Chicago Center
Wed 12:01:55 AM 42.8128 -85.5033 353° North 115 132 1,900 -492 Descending Chicago Center
Wed 12:02:56 AM 42.8417 -85.5097 351° North 110 127 1,500 -393 Descending Chicago Center
Wed 12:04:00 AM 42.8667 -85.5167 11° North  Level FlightAware Approximate
Wed 12:11:00 AM 42.8808 -85.5228 11° North  Level Estimated
Wed 12:12:00 AM 42.8808 -85.5228 11° North  Level Estimated

Login

Don't have an account? Register now (free) for customized features, flight alerts, and more!